AirNav   Bose ProFlight Series 2 Headset
 
 1251 users online  

6FL3 Payson Ranch Airport
Punta Gorda, Florida, USA

GOING TO PUNTA GORDA?


FAA INFORMATION EFFECTIVE 02 JANUARY 2020

Location

FAA Identifier: 6FL3
Lat/Long: 26-56-14.2120N 081-34-01.2800W
26-56.236867N 081-34.021333W
26.9372811,-81.5670222
(estimated)
Elevation: 62 ft. / 19 m (estimated)
Variation: 03W (1990)
From city: 25 miles E of PUNTA GORDA, FL
Time zone: UTC -5 (UTC -4 during Daylight Saving Time)
Zip code: 33960

Airport Operations

Airport use: Private use. Permission required prior to landing
Activation date: 02/1993
Control tower: no
ARTCC: MIAMI CENTER
FSS: MIAMI FLIGHT SERVICE STATION
Attendance: UNATNDD
Segmented circle: no

Nearby radio navigation aids

VOR radial/distance  VOR name  Freq  Var
LBVr304/11.5LA BELLE VORTAC110.4001E
PGDr093/(22.7)PUNTA GORDA VOR110.2006W
RSWr027/26.9LEE COUNTY VORTAC111.8002W

Airport Services

Runway Information

Runway 1/19

Dimensions: 4000 x 50 ft. / 1219 x 15 m
Surface: asphalt
RUNWAY 1  RUNWAY 19
Traffic pattern: leftleft

Airport Ownership and Management from official FAA records

Ownership: Privately-owned
Owner: EVANS PROPERTIES INC.
PO BOX 1137
DADE CITY, FL 33526-1137
Phone 904-567-5661
Manager: WILLIAM O. STUBBS JR.
PO BOX 1137
DADE CITY, FL 33526-1137
Phone 904-567-5661

Additional Remarks

FOR CD CTC FORT MYERS APCH AT 239-768-1377, WHEN APCH CLSD CTC MIAMI ARTCC AT 305-716-1731.

Instrument Procedures

There are no published instrument procedures at 6FL3.

Some nearby airports with instrument procedures:

X14 - La Belle Municipal Airport (14 nm SE)
X06 - Arcadia Municipal Airport (21 nm NW)
KPGD - Punta Gorda Airport (23 nm W)
KRSW - Southwest Florida International Airport (26 nm SW)
KFMY - Page Field Airport (26 nm SW)
 
Loc | Ops | Rwys | IFR | FBO | Links
Com | Nav | Svcs | Stats | Notes

Reliance Aviation
AirBoss

 
Area around 6FL3 (Payson Ranch Airport)
 
Road maps at: MapQuest Bing Google
 
Aerial photo
No photo
 
Sectional chart

 
Airport distance calculator
Flying to Payson Ranch Airport? Find the distance to fly.

From to 6FL3

Sunrise and sunset
Times for 18-Jan-2020
 Local
(UTC-5)
 Zulu
(UTC)
Morning civil twilight06:5311:53
Sunrise07:1812:18
Sunset17:5622:56
Evening civil twilight18:2123:21

Current date and time
Zulu (UTC)  18-Jan-2020 18:03:57
Local (UTC-5)  18-Jan-2020 13:03:57
 
METAR
KPGD 
23nm W 
181753Z 14011KT 10SM SCT044 26/14 A3028 RMK AO2 SLP252 T02610139 10261 20139 58024
KRSW 
26nm SW 
181753Z 13014KT 10SM FEW045 26/14 A3025 RMK AO2 RAB10E34 SLP242 P0000 60000 T02560144 10256 20178 58023
KFMY 
27nm SW 
181753Z 13012KT 10SM SCT044 26/14 A3025 RMK AO2 SLP246 T02610144 10267 20178 58023
TAF
KPGD 
23nm W 
181138Z 1812/1912 07007KT P6SM SCT035 BKN250 FM181500 13013KT P6SM SCT040 SCT250 FM181900 15009KT P6SM SCT040 BKN250 FM182300 14005KT P6SM FEW030 BKN250
KRSW 
26nm SW 
181138Z 1812/1912 09011KT P6SM SCT035 SCT100 FM181500 12013G18KT P6SM SCT040 SCT250 FM181900 13009KT P6SM SCT040 SCT250 FM190000 13005KT P6SM FEW030 SCT250
KFMY 
27nm SW 
181138Z 1812/1912 09011KT P6SM SCT035 SCT250 FM181500 12012KT P6SM SCT040 SCT250 FM181900 14008KT P6SM SCT040 SCT250 FM190000 14005KT P6SM FEW030 SCT250
NOTAMs
Click for the latest NOTAMs
NOTAMs are issued by the DoD/FAA and will open in a separate window not controlled by AirNav.

 

 
 

Would you like to see your business listed on this page?

 If your business provides an interesting product or service to pilots, flight crews, aircraft, or users of the Payson Ranch Airport, you should consider listing it here.  To start the listing process, click on the button below
 
Add a business
 

Other Pages about Payson Ranch Airport

Update a link
 
Copyright © AirNav, LLC. All rights reserved. Privacy Policy  Contact